Time;durP1;ratioP1;P1;durP2;ratioP2;P2;SDS_P1;SDS_P2;PMS_P1;PMS_P2;Temp;Humidity;BMP_temperature;BMP_pressure;BME280_temperature;BME280_humidity;BME280_pressure;Samples;Min_cycle;Max_cycle;Signal;HPM_P1;HPM_P2
2023/08/01 00:00:07;;;;;;;14.98;12.65;;;24.20;58.40;;;;;;4988954;28;20338;-63
2023/08/01 00:02:39;;;;;;;;;;;24.20;58.50;;;;;;4987559;28;20033;-62
2023/08/01 00:05:05;;;;;;;13.95;12.50;;;24.20;58.50;;;;;;4989821;28;19977;-63
2023/08/01 00:07:31;;;;;;;13.85;12.38;;;24.20;58.50;;;;;;4983984;28;20022;-63
2023/08/01 00:09:57;;;;;;;13.20;11.80;;;24.10;58.50;;;;;;4989552;28;20045;-62
2023/08/01 00:12:24;;;;;;;13.55;12.10;;;24.20;58.50;;;;;;4990320;28;20175;-64
2023/08/01 00:14:50;;;;;;;13.57;12.07;;;24.10;58.50;;;;;;4990681;28;20053;-64
2023/08/01 00:17:16;;;;;;;14.82;12.75;;;24.10;58.50;;;;;;4986641;28;20026;-63
2023/08/01 00:19:42;;;;;;;12.88;11.10;;;24.10;58.50;;;;;;4990487;28;20114;-62
2023/08/01 00:22:08;;;;;;;12.57;11.27;;;24.10;58.50;;;;;;4990907;28;20100;-62
2023/08/01 00:24:35;;;;;;;12.55;11.25;;;24.10;58.50;;;;;;4989145;28;20030;-62
2023/08/01 00:27:00;;;;;;;12.07;10.77;;;24.10;58.50;;;;;;4989861;28;20027;-63
2023/08/01 00:29:26;;;;;;;12.00;10.40;;;24.10;58.50;;;;;;4990882;28;20034;-62
2023/08/01 00:31:52;;;;;;;13.50;11.32;;;24.20;58.50;;;;;;4987518;28;20182;-62
2023/08/01 00:34:18;;;;;;;11.75;10.38;;;24.10;58.40;;;;;;4988216;28;20314;-63
2023/08/01 00:36:44;;;;;;;13.10;10.77;;;24.10;58.30;;;;;;4987308;28;20026;-62
2023/08/01 00:39:10;;;;;;;13.23;11.48;;;24.10;58.20;;;;;;4990060;28;20469;-63
2023/08/01 00:41:36;;;;;;;12.55;10.32;;;24.10;58.20;;;;;;4989074;28;20164;-63
2023/08/01 00:44:02;;;;;;;11.43;10.23;;;24.10;58.10;;;;;;4988816;28;20383;-64
2023/08/01 00:46:28;;;;;;;11.75;10.18;;;24.10;58.10;;;;;;4987190;28;20034;-63
2023/08/01 00:48:57;;;;;;;11.15;9.65;;;24.10;58.00;;;;;;4985547;28;20441;-63
2023/08/01 00:51:24;;;;;;;11.25;9.82;;;24.10;57.90;;;;;;4986979;28;20022;-62
2023/08/01 00:53:51;;;;;;;10.60;9.50;;;24.10;57.90;;;;;;4983279;28;20026;-63
2023/08/01 00:56:17;;;;;;;10.00;8.55;;;24.10;57.90;;;;;;4988180;28;20026;-63
2023/08/01 00:58:44;;;;;;;10.35;8.90;;;24.10;57.80;;;;;;4987250;28;20472;-61
2023/08/01 01:01:10;;;;;;;10.15;8.63;;;24.10;57.80;;;;;;4987713;28;20141;-63
2023/08/01 01:03:37;;;;;;;9.45;8.15;;;24.10;57.80;;;;;;4988267;28;20402;-63
2023/08/01 01:06:22;;;;;;;9.48;8.35;;;24.10;57.70;;;;;;4989176;28;20045;-63
2023/08/01 01:08:48;;;;;;;9.40;8.40;;;24.10;57.70;;;;;;4984956;28;20289;-64
2023/08/01 01:11:14;;;;;;;10.23;8.35;;;24.10;58.30;;;;;;4988523;28;20356;-62
2023/08/01 01:13:41;;;;;;;9.30;8.18;;;24.10;57.70;;;;;;4986436;28;20073;-63
2023/08/01 01:16:07;;;;;;;9.57;8.00;;;24.10;57.70;;;;;;4987711;28;20031;-62
2023/08/01 01:18:33;;;;;;;10.43;8.63;;;24.10;57.70;;;;;;4986318;28;20034;-64
2023/08/01 01:21:00;;;;;;;9.75;8.00;;;24.10;57.70;;;;;;4989449;28;20070;-63
2023/08/01 01:23:27;;;;;;;8.90;7.53;;;24.10;57.70;;;;;;4987578;28;20132;-61
2023/08/01 01:25:54;;;;;;;9.55;7.57;;;24.10;57.70;;;;;;4989852;28;20053;-63
2023/08/01 01:28:20;;;;;;;7.68;6.88;;;24.10;57.70;;;;;;4986641;28;20403;-63
2023/08/01 01:30:48;;;;;;;9.30;7.80;;;24.10;57.70;;;;;;4979463;28;20038;-64
2023/08/01 01:33:16;;;;;;;8.80;7.35;;;24.10;57.70;;;;;;4986090;28;20168;-64
2023/08/01 01:35:41;;;;;;;8.70;7.45;;;24.10;57.70;;;;;;4988322;28;20042;-64
2023/08/01 01:38:08;;;;;;;7.55;6.70;;;24.00;57.70;;;;;;4988539;28;20121;-64
2023/08/01 01:40:34;;;;;;;9.10;7.32;;;24.10;57.70;;;;;;4988700;28;20114;-61
2023/08/01 01:43:01;;;;;;;8.27;6.32;;;24.00;57.60;;;;;;4988720;28;20097;-64
2023/08/01 01:45:27;;;;;;;8.13;6.95;;;24.00;57.60;;;;;;4986773;28;20054;-63
2023/08/01 01:47:53;;;;;;;7.85;6.60;;;24.00;57.60;;;;;;4982014;28;20023;-64
2023/08/01 01:50:19;;;;;;;7.53;6.18;;;24.00;57.60;;;;;;4988124;28;20046;-63
2023/08/01 01:52:45;;;;;;;7.78;6.07;;;24.10;57.70;;;;;;4987464;28;20078;-62
2023/08/01 01:55:11;;;;;;;7.25;6.13;;;24.00;57.60;;;;;;4987735;28;20468;-63
2023/08/01 01:57:38;;;;;;;6.93;5.88;;;24.00;57.70;;;;;;4987700;28;20148;-62
2023/08/01 02:00:06;;;;;;;7.00;6.03;;;24.00;57.70;;;;;;4989820;28;20057;-63
2023/08/01 02:02:38;;;;;;;7.53;6.10;;;24.00;57.70;;;;;;4988652;28;20322;-65
2023/08/01 02:05:05;;;;;;;7.55;5.78;;;24.00;57.60;;;;;;4989409;28;20031;-62
2023/08/01 02:07:33;;;;;;;7.07;6.05;;;24.00;57.60;;;;;;4985894;28;20165;-62
2023/08/01 02:10:00;;;;;;;6.85;5.55;;;24.00;57.60;;;;;;4988036;28;20042;-63
2023/08/01 02:12:27;;;;;;;6.70;5.45;;;24.00;57.60;;;;;;4987959;28;20077;-63
2023/08/01 02:14:53;;;;;;;8.20;6.07;;;24.00;57.60;;;;;;4988182;28;20034;-62
2023/08/01 02:17:19;;;;;;;6.07;5.00;;;24.00;57.60;;;;;;4985575;28;20441;-61
2023/08/01 02:19:45;;;;;;;6.75;4.97;;;24.00;57.60;;;;;;4988546;28;20030;-63
2023/08/01 02:22:11;;;;;;;6.13;5.32;;;24.00;57.60;;;;;;4988619;28;20041;-63
2023/08/01 02:24:37;;;;;;;7.55;5.68;;;24.00;57.60;;;;;;4988455;28;20026;-63
2023/08/01 02:27:03;;;;;;;6.35;5.25;;;24.00;57.60;;;;;;4986010;28;20030;-62
2023/08/01 02:29:29;;;;;;;5.57;4.97;;;24.00;57.60;;;;;;4988858;28;20402;-63
2023/08/01 02:31:56;;;;;;;6.22;5.28;;;24.00;57.60;;;;;;4987039;28;20049;-61
2023/08/01 02:34:22;;;;;;;7.10;5.28;;;24.00;57.50;;;;;;4987024;28;20382;-62
2023/08/01 02:36:47;;;;;;;6.03;4.72;;;23.90;57.50;;;;;;4984538;28;20513;-62
2023/08/01 02:39:13;;;;;;;7.53;5.53;;;24.00;57.60;;;;;;4986664;28;20117;-62
2023/08/01 02:41:39;;;;;;;5.95;4.93;;;24.00;57.50;;;;;;4990174;28;20042;-62
2023/08/01 02:44:05;;;;;;;4.55;4.10;;;23.90;57.50;;;;;;4989587;28;20522;-63
2023/08/01 02:46:31;;;;;;;6.43;4.65;;;24.00;57.50;;;;;;4990645;28;20046;-63
2023/08/01 02:48:57;;;;;;;6.75;4.57;;;24.00;57.50;;;;;;4992642;28;20378;-64
2023/08/01 02:51:23;;;;;;;5.38;4.10;;;23.90;57.40;;;;;;4991227;28;20023;-62
2023/08/01 02:53:49;;;;;;;5.30;4.40;;;23.90;57.40;;;;;;4986168;28;20409;-62
2023/08/01 02:56:15;;;;;;;6.95;4.88;;;24.00;57.50;;;;;;4975181;28;20063;-63
2023/08/01 02:58:42;;;;;;;5.47;4.35;;;24.00;57.50;;;;;;4990506;28;20542;-66
2023/08/01 03:01:11;;;;;;;5.97;4.25;;;23.90;57.40;;;;;;4990853;28;20080;-62
2023/08/01 03:03:37;;;;;;;4.93;3.83;;;23.90;57.40;;;;;;5005205;28;20471;-62
2023/08/01 03:06:03;;;;;;;6.53;4.47;;;23.90;57.40;;;;;;4990082;28;20113;-63
2023/08/01 03:08:29;;;;;;;6.10;4.30;;;23.90;57.40;;;;;;4989904;28;20040;-63
2023/08/01 03:10:55;;;;;;;5.03;3.75;;;23.90;57.40;;;;;;4990595;28;20106;-64
2023/08/01 03:13:22;;;;;;;4.68;3.90;;;23.90;57.40;;;;;;4991822;28;20506;-64
2023/08/01 03:15:48;;;;;;;5.45;4.18;;;23.90;57.40;;;;;;4985418;28;20027;-64
2023/08/01 03:18:14;;;;;;;4.68;3.97;;;23.90;57.50;;;;;;4987653;28;20117;-63
2023/08/01 03:20:40;;;;;;;6.35;3.80;;;23.90;57.50;;;;;;4992242;28;20030;-63
2023/08/01 03:23:06;;;;;;;4.28;3.75;;;23.90;57.50;;;;;;4989493;28;20106;-63
2023/08/01 03:25:32;;;;;;;5.50;3.85;;;23.90;57.50;;;;;;4990975;28;20453;-63
2023/08/01 03:27:58;;;;;;;4.30;3.67;;;23.80;57.50;;;;;;4987373;28;20030;-63
2023/08/01 03:30:24;;;;;;;5.55;3.65;;;23.90;57.50;;;;;;4989023;28;20292;-64
2023/08/01 03:32:51;;;;;;;5.15;3.85;;;23.90;57.50;;;;;;4987654;28;20429;-63
2023/08/01 03:35:17;;;;;;;4.70;3.50;;;23.80;57.50;;;;;;4989779;28;20426;-62
2023/08/01 03:37:43;;;;;;;4.50;3.63;;;23.80;57.50;;;;;;4989377;28;20037;-64
2023/08/01 03:40:10;;;;;;;3.38;3.08;;;23.90;57.50;;;;;;4981667;28;20030;-64
2023/08/01 03:42:40;;;;;;;4.60;3.10;;;23.90;57.50;;;;;;4989572;28;20129;-63
2023/08/01 03:45:07;;;;;;;5.50;3.55;;;23.90;57.50;;;;;;4988046;28;20037;-62
2023/08/01 03:47:33;;;;;;;4.75;3.20;;;23.80;57.50;;;;;;4999739;28;20097;-64
2023/08/01 03:49:59;;;;;;;5.55;3.53;;;23.80;57.50;;;;;;4987298;28;20045;-62
2023/08/01 03:52:26;;;;;;;4.25;3.30;;;23.80;57.50;;;;;;4989453;28;20291;-62
2023/08/01 03:54:55;;;;;;;4.97;3.22;;;23.80;57.50;;;;;;4988424;28;20073;-62
2023/08/01 03:57:22;;;;;;;5.60;3.58;;;23.80;57.50;;;;;;4991363;28;20030;-63
2023/08/01 03:59:48;;;;;;;4.82;3.50;;;23.80;57.50;;;;;;4987576;28;20101;-62
2023/08/01 04:02:13;;;;;;;5.53;3.20;;;23.80;57.60;;;;;;4988253;28;20121;-62
2023/08/01 04:04:39;;;;;;;5.78;3.53;;;23.80;57.60;;;;;;4991043;28;20027;-61
2023/08/01 04:07:05;;;;;;;3.47;2.90;;;23.80;57.60;;;;;;4985629;28;20461;-62
2023/08/01 04:09:31;;;;;;;3.95;2.75;;;23.80;57.60;;;;;;4988399;28;20034;-62
2023/08/01 04:11:57;;;;;;;4.97;3.20;;;23.80;57.60;;;;;;4990630;28;20073;-64
2023/08/01 04:14:23;;;;;;;4.82;2.97;;;23.80;57.70;;;;;;4987451;28;20022;-62
2023/08/01 04:16:49;;;;;;;4.97;3.13;;;23.80;57.70;;;;;;4986089;28;20134;-62
2023/08/01 04:19:16;;;;;;;3.88;2.65;;;23.80;57.70;;;;;;4989751;28;20054;-62
2023/08/01 04:21:42;;;;;;;3.50;2.72;;;23.80;57.70;;;;;;4991559;28;20044;-65
2023/08/01 04:24:07;;;;;;;4.47;2.70;;;23.80;57.60;;;;;;4988136;28;20077;-62
2023/08/01 04:26:33;;;;;;;5.25;2.85;;;23.80;57.60;;;;;;4987900;28;20022;-63
2023/08/01 04:28:59;;;;;;;4.82;2.80;;;23.80;57.70;;;;;;4983965;28;20065;-63
2023/08/01 04:31:25;;;;;;;4.25;2.90;;;23.80;57.60;;;;;;4971990;28;20460;-62
2023/08/01 04:33:51;;;;;;;4.65;2.90;;;23.80;57.60;;;;;;4990040;28;20022;-66
2023/08/01 04:36:17;;;;;;;4.38;2.60;;;23.80;57.60;;;;;;4989472;28;20077;-62
2023/08/01 04:38:43;;;;;;;4.65;2.80;;;23.80;57.60;;;;;;4989208;28;20045;-64
2023/08/01 04:41:09;;;;;;;4.82;2.60;;;23.80;57.60;;;;;;4989371;28;20038;-63
2023/08/01 04:43:34;;;;;;;5.30;3.38;;;23.80;57.70;;;;;;4987830;28;20034;-63
2023/08/01 04:46:00;;;;;;;4.32;3.00;;;23.80;57.70;;;;;;4984254;28;20030;-63
2023/08/01 04:48:26;;;;;;;5.15;2.70;;;23.80;57.70;;;;;;4989722;28;20030;-65
2023/08/01 04:50:52;;;;;;;4.05;3.03;;;23.80;57.70;;;;;;4987747;28;20030;-62
2023/08/01 04:53:18;;;;;;;5.03;2.78;;;23.80;57.60;;;;;;4989120;28;20429;-62
2023/08/01 04:55:44;;;;;;;4.32;2.50;;;23.80;57.70;;;;;;4989385;28;20038;-64
2023/08/01 04:58:10;;;;;;;4.20;2.90;;;23.80;57.60;;;;;;4987687;28;20018;-62
2023/08/01 05:00:36;;;;;;;4.28;2.40;;;23.80;57.60;;;;;;4987910;28;20145;-62
2023/08/01 05:03:02;;;;;;;4.50;2.58;;;23.80;57.60;;;;;;4986850;28;20026;-63
2023/08/01 05:05:28;;;;;;;3.50;2.20;;;23.70;57.60;;;;;;4987564;28;20053;-63
2023/08/01 05:07:54;;;;;;;3.75;2.30;;;23.80;57.70;;;;;;4985098;28;20019;-63
2023/08/01 05:10:20;;;;;;;5.18;2.70;;;23.80;57.60;;;;;;4988540;28;20112;-62
2023/08/01 05:12:48;;;;;;;5.85;2.45;;;23.80;57.80;;;;;;4989556;28;20121;-63
2023/08/01 05:15:14;;;;;;;4.10;2.50;;;23.70;57.60;;;;;;4988413;28;20113;-64
2023/08/01 05:17:40;;;;;;;3.30;2.15;;;23.80;57.70;;;;;;4986148;28;20109;-63
2023/08/01 05:20:06;;;;;;;3.70;2.38;;;23.80;57.60;;;;;;4987709;28;20096;-62
2023/08/01 05:22:32;;;;;;;4.50;2.70;;;23.80;57.60;;;;;;4988545;28;20077;-61
2023/08/01 05:24:58;;;;;;;3.85;2.65;;;23.80;57.60;;;;;;4988544;28;20026;-65
2023/08/01 05:27:24;;;;;;;4.30;2.58;;;23.80;57.70;;;;;;4989485;28;20018;-65
2023/08/01 05:29:50;;;;;;;3.10;1.98;;;23.80;57.70;;;;;;4987704;28;21707;-64
2023/08/01 05:32:16;;;;;;;4.55;2.28;;;23.80;57.80;;;;;;4987631;28;20359;-63
2023/08/01 05:34:42;;;;;;;4.35;2.10;;;23.80;57.80;;;;;;4986706;28;20026;-64
2023/08/01 05:37:07;;;;;;;4.03;2.25;;;23.80;57.80;;;;;;4987277;28;20046;-64
2023/08/01 05:39:33;;;;;;;3.92;2.45;;;23.70;57.70;;;;;;4988951;28;20370;-63
2023/08/01 05:41:59;;;;;;;4.35;2.53;;;23.70;57.70;;;;;;4987336;28;20062;-63
2023/08/01 05:44:25;;;;;;;3.67;2.42;;;23.80;57.70;;;;;;4987828;28;20096;-64
2023/08/01 05:46:51;;;;;;;4.15;2.63;;;23.80;57.70;;;;;;4986683;28;20432;-64
2023/08/01 05:49:17;;;;;;;3.63;2.40;;;23.80;57.70;;;;;;4987727;28;20046;-64
2023/08/01 05:51:43;;;;;;;5.15;2.60;;;23.80;57.70;;;;;;4985639;28;20026;-66
2023/08/01 05:54:09;;;;;;;4.45;2.28;;;23.80;57.70;;;;;;4988234;28;20341;-64
2023/08/01 05:56:35;;;;;;;4.70;2.42;;;23.80;57.60;;;;;;4988459;28;20125;-64
2023/08/01 05:59:01;;;;;;;3.42;2.30;;;23.80;57.70;;;;;;4988615;28;20030;-63
2023/08/01 06:01:27;;;;;;;2.85;2.00;;;23.80;57.60;;;;;;4988303;28;20442;-65
2023/08/01 06:03:53;;;;;;;4.03;2.28;;;23.80;57.60;;;;;;4987647;28;20042;-64
2023/08/01 06:06:18;;;;;;;2.92;1.90;;;23.80;57.60;;;;;;4988299;28;20034;-65
2023/08/01 06:08:44;;;;;;;4.20;2.40;;;23.80;57.60;;;;;;4985575;28;20034;-62
2023/08/01 06:11:10;;;;;;;3.25;1.90;;;23.80;57.60;;;;;;4987163;28;20075;-64
2023/08/01 06:13:36;;;;;;;6.07;2.45;;;23.80;57.60;;;;;;4987739;28;20185;-64
2023/08/01 06:16:02;;;;;;;3.58;2.35;;;23.80;57.60;;;;;;4989989;28;20061;-65
2023/08/01 06:18:28;;;;;;;3.08;2.00;;;23.90;57.60;;;;;;4989253;28;20036;-64
2023/08/01 06:20:54;;;;;;;3.95;2.25;;;23.80;57.50;;;;;;4992163;28;20330;-65
2023/08/01 06:23:20;;;;;;;5.13;2.20;;;23.80;57.50;;;;;;4989435;28;20030;-67
2023/08/01 06:25:46;;;;;;;3.67;2.20;;;23.80;57.50;;;;;;4990191;28;20097;-64
2023/08/01 06:28:11;;;;;;;3.78;2.30;;;23.80;57.40;;;;;;4992303;28;20046;-64
2023/08/01 06:30:37;;;;;;;3.53;2.20;;;23.80;57.40;;;;;;4990609;28;20402;-62
2023/08/01 06:33:03;;;;;;;2.80;2.10;;;23.80;57.40;;;;;;4987677;28;20035;-65
2023/08/01 06:35:29;;;;;;;3.58;2.05;;;23.80;57.40;;;;;;4988693;28;20121;-65
2023/08/01 06:37:55;;;;;;;3.60;2.58;;;23.80;57.40;;;;;;4988854;28;20030;-60
2023/08/01 06:40:21;;;;;;;5.13;2.65;;;23.80;57.40;;;;;;4987871;28;20037;-65
2023/08/01 06:42:47;;;;;;;5.32;2.63;;;23.80;57.40;;;;;;4989113;28;20026;-63
2023/08/01 06:45:12;;;;;;;4.22;2.30;;;23.80;57.40;;;;;;4990112;28;20022;-65
2023/08/01 06:47:38;;;;;;;3.70;2.10;;;23.80;57.30;;;;;;4987269;28;20395;-63
2023/08/01 06:50:05;;;;;;;3.75;2.20;;;23.90;57.30;;;;;;4990703;28;20054;-62
2023/08/01 06:52:30;;;;;;;4.75;2.45;;;23.90;57.20;;;;;;4991762;28;20921;-64
2023/08/01 06:54:56;;;;;;;5.00;2.40;;;23.90;57.20;;;;;;4989477;28;20060;-64
2023/08/01 06:57:22;;;;;;;4.75;2.58;;;23.90;57.20;;;;;;4988101;28;20188;-63
2023/08/01 06:59:48;;;;;;;4.03;2.30;;;23.90;57.20;;;;;;4986598;28;20081;-64
2023/08/01 07:02:15;;;;;;;5.10;2.47;;;23.90;57.20;;;;;;4988348;28;20109;-64
2023/08/01 07:04:41;;;;;;;5.28;3.13;;;23.90;57.20;;;;;;4987268;28;20045;-64
2023/08/01 07:07:08;;;;;;;4.20;2.15;;;23.90;57.10;;;;;;4984426;28;20035;-63
2023/08/01 07:09:35;;;;;;;3.58;1.98;;;23.90;57.10;;;;;;4988395;28;20058;-65
2023/08/01 07:12:00;;;;;;;5.97;2.63;;;23.90;57.10;;;;;;4985255;28;20118;-63
2023/08/01 07:14:26;;;;;;;4.70;2.42;;;24.00;57.10;;;;;;4987903;28;20369;-63
2023/08/01 07:16:52;;;;;;;4.82;2.30;;;23.90;57.10;;;;;;4986646;28;20045;-63
2023/08/01 07:19:18;;;;;;;5.47;2.38;;;23.90;57.00;;;;;;4983681;28;21723;-63
2023/08/01 07:21:46;;;;;;;6.00;2.70;;;24.00;57.10;;;;;;4989408;28;20035;-67
2023/08/01 07:24:13;;;;;;;5.50;2.80;;;24.00;57.10;;;;;;4985304;28;20061;-64
2023/08/01 07:26:39;;;;;;;5.50;2.70;;;24.00;57.60;;;;;;4988883;28;20153;-63
2023/08/01 07:29:07;;;;;;;5.70;2.75;;;24.00;57.00;;;;;;4986936;28;20031;-63
2023/08/01 07:31:33;;;;;;;6.38;2.47;;;24.00;57.00;;;;;;4983131;28;21878;-63
2023/08/01 07:33:59;;;;;;;5.38;2.60;;;24.00;56.90;;;;;;4985899;28;20034;-62
2023/08/01 07:36:25;;;;;;;4.80;2.45;;;24.00;56.90;;;;;;4985886;28;20499;-62
2023/08/01 07:38:52;;;;;;;4.78;2.40;;;24.00;56.80;;;;;;4985480;28;20441;-62
2023/08/01 07:41:18;;;;;;;6.15;2.70;;;24.00;56.80;;;;;;4987032;28;20461;-63
2023/08/01 07:43:44;;;;;;;4.25;2.40;;;24.00;56.80;;;;;;4984725;28;20069;-64
2023/08/01 07:46:11;;;;;;;6.88;3.05;;;24.00;56.80;;;;;;4985600;28;20611;-64
2023/08/01 07:48:38;;;;;;;5.18;2.40;;;24.00;56.70;;;;;;4983261;28;20038;-64
2023/08/01 07:51:05;;;;;;;5.55;2.80;;;24.00;56.70;;;;;;4989666;28;20358;-64
2023/08/01 07:53:31;;;;;;;5.65;2.90;;;24.00;56.60;;;;;;4989052;28;20038;-63
2023/08/01 07:55:57;;;;;;;6.60;2.80;;;24.10;56.60;;;;;;4985535;28;20033;-64
2023/08/01 07:58:23;;;;;;;5.22;2.50;;;24.10;56.50;;;;;;4987100;28;20038;-62
2023/08/01 08:00:49;;;;;;;5.55;2.83;;;24.10;56.40;;;;;;4987747;28;20097;-62
2023/08/01 08:03:15;;;;;;;4.85;2.42;;;24.10;56.40;;;;;;4984401;28;20027;-63
2023/08/01 08:05:41;;;;;;;6.57;2.50;;;24.10;56.30;;;;;;4986014;28;20418;-66
2023/08/01 08:08:07;;;;;;;4.63;2.50;;;24.10;56.30;;;;;;4984529;28;20109;-64
2023/08/01 08:10:33;;;;;;;5.85;2.60;;;24.10;56.30;;;;;;4989156;28;20434;-63
2023/08/01 08:12:59;;;;;;;5.55;2.53;;;24.10;56.20;;;;;;4990639;28;20129;-64
2023/08/01 08:15:26;;;;;;;5.22;2.50;;;24.20;56.20;;;;;;4990660;28;20026;-65
2023/08/01 08:17:52;;;;;;;4.80;2.22;;;24.20;56.00;;;;;;4986799;28;20330;-63
2023/08/01 08:20:18;;;;;;;4.72;2.65;;;24.20;55.90;;;;;;4989234;28;20030;-63
2023/08/01 08:22:43;;;;;;;3.60;2.10;;;24.20;55.80;;;;;;4987109;28;20383;-65
2023/08/01 08:25:09;;;;;;;3.85;2.17;;;24.20;55.70;;;;;;5001157;28;20034;-65
2023/08/01 08:27:35;;;;;;;3.70;2.15;;;24.20;55.60;;;;;;4989389;28;20035;-65
2023/08/01 08:30:01;;;;;;;3.45;2.00;;;24.20;55.60;;;;;;4989301;28;20037;-63
2023/08/01 08:32:27;;;;;;;3.28;1.90;;;24.20;55.60;;;;;;4986809;28;20133;-63
2023/08/01 08:34:53;;;;;;;4.43;2.08;;;24.20;55.60;;;;;;4988458;28;20106;-64
2023/08/01 08:37:19;;;;;;;2.38;1.58;;;24.20;55.60;;;;;;4987661;28;20079;-64
2023/08/01 08:39:44;;;;;;;3.72;1.73;;;24.20;55.60;;;;;;4987193;28;20022;-63
2023/08/01 08:42:10;;;;;;;3.67;2.00;;;24.20;55.50;;;;;;4988774;28;20034;-63
2023/08/01 08:44:43;;;;;;;2.65;1.42;;;24.20;55.60;;;;;;4988111;28;20463;-64
2023/08/01 08:47:11;;;;;;;3.80;1.80;;;24.20;55.60;;;;;;4988660;28;20106;-63
2023/08/01 08:49:38;;;;;;;4.40;2.10;;;24.20;55.70;;;;;;4988386;28;20116;-63
2023/08/01 08:52:05;;;;;;;2.65;1.50;;;24.20;55.70;;;;;;4987140;28;20096;-63
2023/08/01 08:54:31;;;;;;;3.00;1.55;;;24.30;55.70;;;;;;4987792;28;20035;-63
2023/08/01 08:56:59;;;;;;;6.03;2.00;;;24.30;55.70;;;;;;4988141;28;20030;-61
2023/08/01 08:59:26;;;;;;;2.85;1.65;;;24.30;55.80;;;;;;4985487;28;20034;-65
2023/08/01 09:01:56;;;;;;;6.28;1.95;;;24.30;55.80;;;;;;4986872;28;20034;-67
2023/08/01 09:04:22;;;;;;;4.15;1.88;;;24.30;55.80;;;;;;4988163;28;20038;-63
2023/08/01 09:06:54;;;;;;;5.40;1.75;;;24.30;55.80;;;;;;4986963;28;20105;-65
2023/08/01 09:09:22;;;;;;;3.08;1.75;;;24.30;55.70;;;;;;4987731;28;20399;-64
2023/08/01 09:11:52;;;;;;;3.00;1.67;;;24.30;55.70;;;;;;4984027;28;20496;-61
2023/08/01 09:14:19;;;;;;;4.47;1.58;;;24.30;55.70;;;;;;4985235;28;20325;-60
2023/08/01 09:16:48;;;;;;;2.72;1.45;;;24.40;55.80;;;;;;4985270;28;20026;-61
2023/08/01 09:19:21;;;;;;;4.10;1.88;;;24.40;55.80;;;;;;4984249;28;20034;-63
2023/08/01 09:21:47;;;;;;;1.55;1.10;;;24.40;55.80;;;;;;4983990;28;20023;-56
2023/08/01 09:24:21;;;;;;;4.07;1.77;;;24.40;55.90;;;;;;4985285;28;20030;-60
2023/08/01 09:26:48;;;;;;;3.17;1.70;;;24.40;55.90;;;;;;4984620;28;20034;-61
2023/08/01 09:29:17;;;;;;;3.10;1.58;;;24.50;55.90;;;;;;4986017;28;20073;-60
2023/08/01 09:31:43;;;;;;;2.20;1.40;;;24.50;55.80;;;;;;4985088;28;20038;-61
2023/08/01 09:34:23;;;;;;;3.92;1.48;;;24.50;55.70;;;;;;4984979;28;20928;-61
2023/08/01 09:36:49;;;;;;;2.60;1.20;;;24.50;55.60;;;;;;4984081;28;20100;-61
2023/08/01 09:39:17;;;;;;;3.83;1.30;;;24.50;55.50;;;;;;4985480;28;20096;-61
2023/08/01 09:41:43;;;;;;;3.53;1.40;;;24.50;55.40;;;;;;4986006;28;20041;-61
2023/08/01 09:44:15;;;;;;;2.17;1.20;;;24.60;55.30;;;;;;4984181;28;20096;-62
2023/08/01 09:46:42;;;;;;;2.47;1.27;;;24.60;55.00;;;;;;4983988;28;21230;-61
2023/08/01 09:49:12;;;;;;;3.10;1.50;;;24.60;54.80;;;;;;4995921;28;20121;-62
2023/08/01 09:51:48;;;;;;;2.55;1.40;;;24.60;54.60;;;;;;4988493;28;20026;-61
2023/08/01 09:54:15;;;;;;;3.58;1.42;;;24.60;54.30;;;;;;4988123;28;20061;-62
2023/08/01 09:56:45;;;;;;;2.85;1.30;;;24.60;54.20;;;;;;4989389;28;20143;-62
2023/08/01 09:59:11;;;;;;;2.30;1.10;;;24.60;54.00;;;;;;4987646;28;20046;-61
2023/08/01 10:01:39;;;;;;;2.90;1.45;;;24.60;53.90;;;;;;4989199;28;20045;-61
2023/08/01 10:04:07;;;;;;;3.13;1.40;;;24.60;53.70;;;;;;4987261;28;20344;-60
2023/08/01 10:06:37;;;;;;;3.10;1.27;;;24.60;53.60;;;;;;4989031;28;20034;-61
2023/08/01 10:09:04;;;;;;;2.25;1.38;;;24.60;53.50;;;;;;4990728;28;20045;-62
2023/08/01 10:11:33;;;;;;;2.30;0.98;;;24.70;53.40;;;;;;4990361;28;20120;-61
2023/08/01 10:14:02;;;;;;;2.28;1.27;;;24.70;53.30;;;;;;4991581;28;20041;-61
2023/08/01 10:16:29;;;;;;;2.28;1.10;;;24.70;53.10;;;;;;4990670;28;20018;-61
2023/08/01 10:18:55;;;;;;;2.15;1.23;;;24.70;52.90;;;;;;4990368;28;21339;-62
2023/08/01 10:21:22;;;;;;;2.67;1.20;;;24.70;52.80;;;;;;4991405;28;20026;-61
2023/08/01 10:23:49;;;;;;;1.85;1.13;;;24.70;52.70;;;;;;4988435;28;20034;-61
2023/08/01 10:26:15;;;;;;;2.30;0.93;;;24.70;52.50;;;;;;4989117;28;20109;-61
2023/08/01 10:28:49;;;;;;;2.28;0.82;;;24.70;52.40;;;;;;4988379;28;20132;-64
2023/08/01 10:31:16;;;;;;;;;;;24.70;52.20;;;;;;4987519;28;20053;-62
2023/08/01 10:33:46;;;;;;;2.00;1.10;;;24.70;52.20;;;;;;4987939;28;19910;-61
2023/08/01 10:36:23;;;;;;;1.48;0.95;;;24.70;52.10;;;;;;4988706;28;20382;-62
2023/08/01 10:38:54;;;;;;;2.22;1.20;;;24.70;52.00;;;;;;4986221;28;20358;-61
2023/08/01 10:41:27;;;;;;;2.20;1.05;;;24.80;52.00;;;;;;4989076;28;20228;-60
2023/08/01 10:44:12;;;;;;;2.00;1.02;;;24.70;51.80;;;;;;4988138;28;20049;-61
2023/08/01 10:47:02;;;;;;;2.00;0.90;;;24.80;51.70;;;;;;4989789;28;20045;-60
2023/08/01 10:49:44;;;;;;;2.25;1.15;;;24.80;51.50;;;;;;4987438;28;20441;-61
2023/08/01 10:52:27;;;;;;;2.15;1.00;;;24.80;51.40;;;;;;4990154;28;20046;-62
2023/08/01 10:55:05;;;;;;;2.38;0.90;;;24.80;51.40;;;;;;4989884;28;20070;-59
2023/08/01 10:57:34;;;;;;;1.63;1.02;;;24.80;51.20;;;;;;4989363;28;20066;-61
2023/08/01 11:00:00;;;;;;;1.67;1.00;;;24.80;51.30;;;;;;4991914;28;20421;-62
2023/08/01 11:02:28;;;;;;;2.17;0.70;;;24.80;52.00;;;;;;4986266;28;20327;-62
2023/08/01 11:05:02;;;;;;;2.08;0.90;;;24.90;51.50;;;;;;4985059;28;20065;-64
2023/08/01 11:07:29;;;;;;;1.45;0.80;;;24.90;51.50;;;;;;4987006;28;20070;-65
2023/08/01 11:10:09;;;;;;;3.33;0.70;;;25.00;51.60;;;;;;4990775;28;20080;-62
2023/08/01 11:12:39;;;;;;;1.58;0.90;;;25.00;52.20;;;;;;4987700;28;20046;-60
2023/08/01 11:15:08;;;;;;;2.95;0.90;;;25.10;51.70;;;;;;4988830;28;20117;-64
2023/08/01 11:17:42;;;;;;;1.55;0.90;;;25.20;51.60;;;;;;4987268;28;20355;-62
2023/08/01 11:20:10;;;;;;;3.97;0.90;;;25.20;51.50;;;;;;4987794;28;20034;-62
2023/08/01 11:22:37;;;;;;;3.58;1.30;;;25.30;51.40;;;;;;4990128;28;20153;-65
2023/08/01 11:25:04;;;;;;;3.75;1.20;;;25.40;51.30;;;;;;4988746;28;20054;-64
2023/08/01 11:27:30;;;;;;;3.47;1.20;;;25.60;51.30;;;;;;4989832;28;20026;-64
2023/08/01 11:29:56;;;;;;;5.00;1.17;;;25.60;51.00;;;;;;4987760;28;20126;-65
2023/08/01 11:32:36;;;;;;;2.83;1.08;;;25.80;50.90;;;;;;4989093;28;20049;-64
2023/08/01 11:35:02;;;;;;;4.53;1.17;;;25.90;50.50;;;;;;4989917;28;20378;-64
2023/08/01 11:37:29;;;;;;;2.45;1.10;;;25.90;50.10;;;;;;4989543;28;20040;-64
2023/08/01 11:39:56;;;;;;;2.08;1.00;;;26.00;50.00;;;;;;4988815;28;20092;-64
2023/08/01 11:42:22;;;;;;;2.50;1.10;;;26.10;49.80;;;;;;4989407;28;20087;-63
2023/08/01 11:44:48;;;;;;;3.70;1.02;;;26.20;49.50;;;;;;4987709;28;20421;-62
2023/08/01 11:47:15;;;;;;;3.03;0.98;;;26.20;49.20;;;;;;4985442;28;20052;-65
2023/08/01 11:49:50;;;;;;;2.47;0.95;;;26.30;49.10;;;;;;4988001;28;20117;-63
2023/08/01 11:52:27;;;;;;;1.88;0.88;;;26.40;49.10;;;;;;4986172;28;20117;-62
2023/08/01 11:54:54;;;;;;;1.10;0.60;;;26.40;49.10;;;;;;4989249;28;20023;-62
2023/08/01 11:57:21;;;;;;;2.05;1.08;;;26.50;49.00;;;;;;4989415;28;20033;-62
2023/08/01 11:59:56;;;;;;;1.63;0.80;;;26.60;49.20;;;;;;5004187;28;20060;-66
2023/08/01 12:02:23;;;;;;;2.33;1.00;;;26.60;49.10;;;;;;4988710;28;20117;-65
2023/08/01 12:04:49;;;;;;;3.88;1.05;;;26.70;49.20;;;;;;4986843;28;20038;-65
2023/08/01 12:07:16;;;;;;;1.95;0.88;;;26.70;49.10;;;;;;4985601;28;20040;-63
2023/08/01 12:09:42;;;;;;;2.22;0.93;;;26.80;49.60;;;;;;4988009;28;20045;-63
2023/08/01 12:12:09;;;;;;;2.05;0.90;;;26.80;48.80;;;;;;4987434;28;20132;-63
2023/08/01 12:14:40;;;;;;;1.17;0.70;;;26.80;48.60;;;;;;4990184;28;20034;-64
2023/08/01 12:17:06;;;;;;;2.00;0.90;;;26.90;48.40;;;;;;4982821;28;20112;-66
2023/08/01 12:19:33;;;;;;;2.78;0.75;;;26.90;48.20;;;;;;4986789;28;20410;-65
2023/08/01 12:22:00;;;;;;;1.42;0.73;;;26.90;47.90;;;;;;4987112;28;20116;-66
2023/08/01 12:24:26;;;;;;;2.85;0.90;;;27.00;47.70;;;;;;4987319;28;20038;-64
2023/08/01 12:26:51;;;;;;;1.48;0.77;;;27.00;47.50;;;;;;4986198;28;20035;-63
2023/08/01 12:29:17;;;;;;;1.98;0.80;;;27.10;47.30;;;;;;4986519;28;20026;-65
2023/08/01 12:31:43;;;;;;;2.05;0.80;;;27.10;47.10;;;;;;4983913;28;20047;-63
2023/08/01 12:34:09;;;;;;;1.55;0.90;;;27.10;47.00;;;;;;4970212;28;20026;-64
2023/08/01 12:36:35;;;;;;;1.48;0.70;;;27.10;46.80;;;;;;4986104;28;20038;-63
2023/08/01 12:39:01;;;;;;;2.35;0.70;;;27.10;46.70;;;;;;4988216;28;20277;-63
2023/08/01 12:41:27;;;;;;;1.38;0.85;;;27.10;46.60;;;;;;4989855;28;20034;-65
2023/08/01 12:43:53;;;;;;;2.05;1.00;;;27.10;46.50;;;;;;4991164;28;20124;-64